createdAt,value
2022-08-23T00:01:22.830Z,19.80
2022-08-23T00:03:54.477Z,19.87
2022-08-23T00:06:23.535Z,19.89
2022-08-23T00:08:52.896Z,19.98
2022-08-23T00:11:30.880Z,20.03
2022-08-23T00:13:59.845Z,20.06
2022-08-23T00:16:29.034Z,20.08
2022-08-23T00:18:57.073Z,19.98
2022-08-23T00:21:24.775Z,19.83
2022-08-23T00:23:52.449Z,19.82
2022-08-23T00:26:20.747Z,19.81
2022-08-23T00:28:49.186Z,19.78
2022-08-23T00:31:17.066Z,19.73
2022-08-23T00:33:46.488Z,19.64
2022-08-23T00:36:14.254Z,19.56
2022-08-23T00:38:42.066Z,19.52
2022-08-23T00:41:10.071Z,19.47
2022-08-23T00:43:59.316Z,19.49
2022-08-23T00:46:55.896Z,19.43
2022-08-23T00:49:26.505Z,19.35
2022-08-23T00:51:58.923Z,19.23
2022-08-23T00:54:29.758Z,19.15
2022-08-23T00:57:00.845Z,19.06
2022-08-23T00:59:28.974Z,19.20
2022-08-23T01:01:57.321Z,19.32
2022-08-23T01:04:28.428Z,19.40
2022-08-23T01:07:04.410Z,19.40
2022-08-23T01:09:32.279Z,19.52
2022-08-23T01:12:05.775Z,19.59
2022-08-23T01:14:36.691Z,19.52
2022-08-23T01:17:07.893Z,19.30
2022-08-23T01:19:40.848Z,19.09
2022-08-23T01:22:14.018Z,18.92
2022-08-23T01:25:05.915Z,18.97
2022-08-23T01:27:33.499Z,19.05
2022-08-23T01:30:01.168Z,19.18
2022-08-23T01:32:29.801Z,19.30
2022-08-23T01:34:57.502Z,19.40
2022-08-23T01:37:25.227Z,19.36
2022-08-23T01:39:55.232Z,19.25
2022-08-23T01:42:23.372Z,19.04
2022-08-23T01:44:51.548Z,18.87
2022-08-23T01:47:19.699Z,18.79
2022-08-23T01:49:47.588Z,18.85
2022-08-23T01:52:17.133Z,19.11
2022-08-23T01:54:44.921Z,19.06
2022-08-23T01:57:13.903Z,18.97
2022-08-23T01:59:43.608Z,18.84
2022-08-23T02:02:11.902Z,18.69
2022-08-23T02:04:39.559Z,18.57
2022-08-23T02:07:08.276Z,18.64
2022-08-23T02:09:35.988Z,18.66
2022-08-23T02:12:05.493Z,18.83
2022-08-23T02:14:34.536Z,18.87
2022-08-23T02:17:04.938Z,18.85
2022-08-23T02:19:34.975Z,18.78
2022-08-23T02:22:04.022Z,18.69
2022-08-23T02:24:32.168Z,18.62
2022-08-23T02:27:02.565Z,18.68
2022-08-23T02:29:32.201Z,18.73
2022-08-23T02:32:06.104Z,18.64
2022-08-23T02:34:33.819Z,18.55
2022-08-23T02:37:02.286Z,18.47
2022-08-23T02:39:30.239Z,18.54
2022-08-23T02:41:58.205Z,18.57
2022-08-23T02:44:25.937Z,18.63
2022-08-23T02:46:54.844Z,18.49
2022-08-23T02:49:23.893Z,18.43
2022-08-23T02:51:51.700Z,18.43
2022-08-23T02:54:19.460Z,18.47
2022-08-23T02:56:47.302Z,18.57
2022-08-23T02:59:14.928Z,18.43
2022-08-23T03:01:42.605Z,18.28
2022-08-23T03:04:25.513Z,18.17
2022-08-23T03:06:53.670Z,18.13
2022-08-23T03:09:22.561Z,18.14
2022-08-23T03:11:50.920Z,18.24
2022-08-23T03:14:20.723Z,18.39
2022-08-23T03:16:48.804Z,18.41
2022-08-23T03:19:16.419Z,18.31
2022-08-23T03:21:45.520Z,18.32
2022-08-23T03:24:14.931Z,18.38
2022-08-23T03:26:43.469Z,18.34
2022-08-23T03:29:11.390Z,18.33
2022-08-23T03:31:57.379Z,18.34
2022-08-23T03:34:25.858Z,18.28
2022-08-23T03:36:56.163Z,18.32
2022-08-23T03:39:24.300Z,18.21
2022-08-23T03:41:55.428Z,18.27
2022-08-23T03:44:23.458Z,18.13
2022-08-23T03:46:51.731Z,18.12
2022-08-23T03:49:19.353Z,18.14
2022-08-23T03:51:56.577Z,18.12
2022-08-23T03:54:24.444Z,18.10
2022-08-23T03:56:57.033Z,18.07
2022-08-23T03:59:25.687Z,18.14
2022-08-23T04:01:53.731Z,18.17
2022-08-23T04:04:21.583Z,18.13
2022-08-23T04:07:09.258Z,18.26
2022-08-23T04:09:38.236Z,18.17
2022-08-23T04:12:11.990Z,18.18
2022-08-23T04:14:46.077Z,18.03
2022-08-23T04:17:17.734Z,18.00
2022-08-23T04:19:45.421Z,17.96
2022-08-23T04:22:16.376Z,17.90
2022-08-23T04:24:45.446Z,17.92
2022-08-23T04:27:14.033Z,17.99
2022-08-23T04:29:42.176Z,18.05
2022-08-23T04:32:11.717Z,18.03
2022-08-23T04:34:42.280Z,17.98
2022-08-23T04:37:14.849Z,17.84
2022-08-23T04:40:00.992Z,17.87
2022-08-23T04:42:35.680Z,17.90
2022-08-23T04:45:03.358Z,17.81
2022-08-23T04:47:32.890Z,17.78
2022-08-23T04:50:03.103Z,17.74
2022-08-23T04:52:33.336Z,17.73
2022-08-23T04:55:01.253Z,17.89
2022-08-23T04:57:47.807Z,17.89
2022-08-23T05:00:19.876Z,17.76
2022-08-23T05:02:53.773Z,17.93
2022-08-23T05:05:22.225Z,17.90
2022-08-23T05:07:52.181Z,17.94
2022-08-23T05:10:20.476Z,17.93
2022-08-23T05:12:52.413Z,17.80
2022-08-23T05:15:21.952Z,17.81
2022-08-23T05:17:57.744Z,17.76
2022-08-23T05:20:26.301Z,17.80
2022-08-23T05:22:55.597Z,17.83
2022-08-23T05:25:49.367Z,17.93
2022-08-23T05:28:28.441Z,17.91
2022-08-23T05:31:00.559Z,17.95
2022-08-23T05:33:33.293Z,17.95
2022-08-23T05:36:02.163Z,18.00
2022-08-23T05:38:32.391Z,17.99
2022-08-23T05:41:02.035Z,17.91
2022-08-23T05:43:34.119Z,17.95
2022-08-23T05:46:04.325Z,18.02
2022-08-23T05:48:36.176Z,18.10
2022-08-23T05:51:11.328Z,18.13
2022-08-23T05:53:41.181Z,18.23
2022-08-23T05:56:17.688Z,18.33
2022-08-23T05:58:48.004Z,18.42
2022-08-23T06:01:16.602Z,18.41
2022-08-23T06:03:45.387Z,18.49
2022-08-23T06:06:15.665Z,18.66
2022-08-23T06:08:48.728Z,18.84
2022-08-23T06:11:18.773Z,18.84
2022-08-23T06:13:50.092Z,18.82
2022-08-23T06:16:19.733Z,18.82
2022-08-23T06:18:47.590Z,18.75
2022-08-23T06:21:34.396Z,18.77
2022-08-23T06:24:03.764Z,18.84
2022-08-23T06:26:33.735Z,18.93
2022-08-23T06:29:07.984Z,19.01
2022-08-23T06:31:48.879Z,19.10
2022-08-23T06:34:29.242Z,19.16
2022-08-23T06:37:19.276Z,19.26
2022-08-23T06:40:08.277Z,19.41
2022-08-23T06:42:51.115Z,19.51
2022-08-23T06:45:22.905Z,19.61
2022-08-23T06:48:02.125Z,19.71
2022-08-23T06:50:32.029Z,19.85
2022-08-23T06:53:18.919Z,19.95
2022-08-23T06:56:13.432Z,20.08
2022-08-23T06:58:51.036Z,20.17
2022-08-23T07:01:52.207Z,20.27
2022-08-23T07:04:25.769Z,20.37
2022-08-23T07:07:11.951Z,20.48
2022-08-23T07:09:40.673Z,20.61
2022-08-23T07:12:10.904Z,20.75
2022-08-23T07:14:42.170Z,20.82
2022-08-23T07:17:11.039Z,20.88
2022-08-23T07:19:39.029Z,20.99
2022-08-23T07:22:07.332Z,21.09
2022-08-23T07:24:35.425Z,21.16
2022-08-23T07:27:09.404Z,21.25
2022-08-23T07:29:49.045Z,21.34
2022-08-23T07:32:18.749Z,21.42
2022-08-23T07:34:46.876Z,21.51
2022-08-23T07:37:17.144Z,21.59
2022-08-23T07:39:46.041Z,21.73
2022-08-23T07:42:24.022Z,21.85
2022-08-23T07:44:56.107Z,21.97
2022-08-23T07:47:28.320Z,22.08
2022-08-23T07:49:57.544Z,22.21
2022-08-23T07:52:26.216Z,22.32
2022-08-23T07:54:53.852Z,22.45
2022-08-23T07:57:28.905Z,22.58
2022-08-23T08:00:11.904Z,22.72
2022-08-23T08:02:58.063Z,22.83
2022-08-23T08:05:33.701Z,22.94
2022-08-23T08:08:02.833Z,23.05
2022-08-23T08:10:30.463Z,23.12
2022-08-23T08:12:58.256Z,23.23
2022-08-23T08:15:27.336Z,23.38
2022-08-23T08:18:03.177Z,23.42
2022-08-23T08:20:55.744Z,23.48
2022-08-23T08:23:41.847Z,23.61
2022-08-23T08:26:29.463Z,23.77
2022-08-23T08:28:58.635Z,23.86
2022-08-23T08:31:28.107Z,24.01
2022-08-23T08:33:56.873Z,24.04
2022-08-23T08:36:35.100Z,24.09
2022-08-23T08:39:05.735Z,24.25
2022-08-23T08:42:04.155Z,24.39
2022-08-23T08:44:39.872Z,24.53
2022-08-23T08:47:15.192Z,24.67
2022-08-23T08:49:48.876Z,24.75
2022-08-23T08:52:21.536Z,24.85
2022-08-23T08:54:53.338Z,24.95
2022-08-23T08:57:27.483Z,25.06
2022-08-23T09:00:00.699Z,25.11
2022-08-23T09:02:34.127Z,25.21
2022-08-23T09:05:12.600Z,25.31
2022-08-23T09:07:51.731Z,25.38
2022-08-23T09:10:51.972Z,25.48
2022-08-23T09:13:46.630Z,25.68
2022-08-23T09:16:30.981Z,25.82
2022-08-23T09:19:00.725Z,25.92
2022-08-23T09:21:28.765Z,25.90
2022-08-23T09:24:00.795Z,25.94
2022-08-23T09:26:41.257Z,26.04
2022-08-23T09:29:20.753Z,26.07
2022-08-23T09:31:52.402Z,26.18
2022-08-23T09:34:38.187Z,26.23
2022-08-23T09:37:17.892Z,26.39
2022-08-23T09:39:50.581Z,26.52
2022-08-23T09:42:30.713Z,26.71
2022-08-23T09:44:59.442Z,26.82
2022-08-23T09:47:34.206Z,26.86
2022-08-23T09:50:25.325Z,26.94
2022-08-23T09:53:00.117Z,26.85
2022-08-23T09:55:32.970Z,26.96
2022-08-23T09:58:03.592Z,27.21
2022-08-23T10:00:34.861Z,27.23
2022-08-23T10:03:24.856Z,27.24
2022-08-23T10:06:00.688Z,27.27
2022-08-23T10:08:34.495Z,27.43
2022-08-23T10:11:12.333Z,27.65
2022-08-23T10:13:43.852Z,27.85
2022-08-23T10:16:23.691Z,28.15
2022-08-23T10:19:07.369Z,28.18
2022-08-23T10:21:42.481Z,28.39
2022-08-23T10:24:18.113Z,28.47
2022-08-23T10:27:00.244Z,28.38
2022-08-23T10:29:37.250Z,28.37
2022-08-23T10:32:18.381Z,28.44
2022-08-23T10:35:04.607Z,28.60
2022-08-23T10:37:48.081Z,28.73
2022-08-23T10:40:20.621Z,28.83
2022-08-23T10:43:01.617Z,28.95
2022-08-23T10:45:33.015Z,29.03
2022-08-23T10:48:27.284Z,29.19
2022-08-23T10:50:58.448Z,29.49
2022-08-23T10:53:37.274Z,29.77
2022-08-23T10:56:07.777Z,30.12
2022-08-23T10:58:47.373Z,30.35
2022-08-23T11:01:19.810Z,30.32
2022-08-23T11:03:57.504Z,30.37
2022-08-23T11:06:46.540Z,30.30
2022-08-23T11:09:54.480Z,30.47
2022-08-23T11:12:30.847Z,30.67
2022-08-23T11:15:11.292Z,30.99
2022-08-23T11:17:56.884Z,30.83
2022-08-23T11:21:11.689Z,30.87
2022-08-23T11:23:54.156Z,31.41
2022-08-23T11:27:05.950Z,31.59
2022-08-23T11:29:43.530Z,32.22
2022-08-23T11:32:41.534Z,32.59
2022-08-23T11:35:35.292Z,33.09
2022-08-23T11:38:05.151Z,33.52
2022-08-23T11:40:57.036Z,33.85
2022-08-23T11:43:36.168Z,34.33
2022-08-23T11:46:32.043Z,34.91
2022-08-23T11:49:42.575Z,35.30
2022-08-23T11:52:28.037Z,35.71
2022-08-23T11:55:22.132Z,35.89
2022-08-23T11:58:01.243Z,35.93
2022-08-23T12:00:55.056Z,35.90
2022-08-23T12:03:32.437Z,36.09
2022-08-23T12:06:39.194Z,34.74
2022-08-23T12:09:13.846Z,33.97
2022-08-23T12:12:18.904Z,34.42
2022-08-23T12:14:53.649Z,34.62
2022-08-23T12:17:58.032Z,35.02
2022-08-23T12:20:32.377Z,35.74
2022-08-23T12:23:13.111Z,36.16
2022-08-23T12:25:41.217Z,35.72
2022-08-23T12:28:29.776Z,36.42
2022-08-23T12:31:07.856Z,36.61
2022-08-23T12:33:46.720Z,37.53
2022-08-23T12:36:23.832Z,37.42
2022-08-23T12:39:01.436Z,37.54
2022-08-23T12:41:31.860Z,37.50
2022-08-23T12:44:03.234Z,37.22
2022-08-23T12:46:37.858Z,37.82
2022-08-23T12:49:08.625Z,37.72
2022-08-23T12:51:50.506Z,37.12
2022-08-23T12:54:22.524Z,37.46
2022-08-23T12:56:53.178Z,37.27
2022-08-23T12:59:35.432Z,37.81
2022-08-23T13:02:05.204Z,38.58
2022-08-23T13:04:34.038Z,38.89
2022-08-23T13:07:08.219Z,39.49
2022-08-23T13:09:38.076Z,40.73
2022-08-23T13:12:07.215Z,41.87
2022-08-23T13:14:37.971Z,41.79
2022-08-23T13:17:21.997Z,42.26
2022-08-23T13:19:52.073Z,43.07
2022-08-23T13:22:26.958Z,43.49
2022-08-23T13:27:57.676Z,44.56
2022-08-23T13:30:27.493Z,44.77
2022-08-23T13:33:20.729Z,44.86
2022-08-23T13:35:49.970Z,45.01
2022-08-23T13:38:24.708Z,44.83
2022-08-23T13:41:01.793Z,45.59
2022-08-23T13:43:34.580Z,46.31
2022-08-23T13:46:13.599Z,47.05
2022-08-23T13:48:48.844Z,47.03
2022-08-23T13:51:29.366Z,47.50
2022-08-23T13:53:59.809Z,48.14
2022-08-23T13:56:29.284Z,48.42
2022-08-23T13:59:00.688Z,48.34
2022-08-23T14:01:29.123Z,48.98
2022-08-23T14:03:57.470Z,49.22
2022-08-23T14:06:25.473Z,48.69
2022-08-23T14:08:53.093Z,47.27
2022-08-23T14:11:22.132Z,47.54
2022-08-23T14:13:50.989Z,48.73
2022-08-23T14:16:40.569Z,49.50
2022-08-23T14:19:54.596Z,50.31
2022-08-23T14:21:58.619Z,50.26
2022-08-23T14:24:27.451Z,50.36
2022-08-23T14:26:57.216Z,50.60
2022-08-23T14:29:28.099Z,49.81
2022-08-23T14:31:57.029Z,50.32
2022-08-23T14:34:25.349Z,50.44
2022-08-23T14:39:41.805Z,51.29
2022-08-23T14:42:13.916Z,52.05
2022-08-23T14:44:42.546Z,52.76
2022-08-23T14:47:10.180Z,52.91
2022-08-23T14:49:38.599Z,52.12
2022-08-23T14:52:06.742Z,53.45
2022-08-23T14:54:34.624Z,53.55
2022-08-23T14:57:02.327Z,53.81
2022-08-23T14:59:31.285Z,54.34
2022-08-23T15:01:59.669Z,54.34
2022-08-23T15:04:34.161Z,54.34
2022-08-23T15:07:19.456Z,54.85
2022-08-23T15:09:48.508Z,54.41
2022-08-23T15:15:08.595Z,54.96
2022-08-23T15:17:39.591Z,54.82
2022-08-23T15:20:08.175Z,55.19
2022-08-23T15:22:40.068Z,54.82
2022-08-23T15:25:13.285Z,55.06
2022-08-23T15:27:41.234Z,55.42
2022-08-23T15:30:12.211Z,54.65
2022-08-23T15:32:39.884Z,54.75
2022-08-23T15:35:20.248Z,53.47
2022-08-23T15:37:49.601Z,52.86
2022-08-23T15:40:17.541Z,52.67
2022-08-23T15:42:45.222Z,53.25
2022-08-23T15:45:14.556Z,53.38
2022-08-23T15:47:49.013Z,53.25
2022-08-23T15:50:20.185Z,53.41
2022-08-23T15:52:47.995Z,53.32
2022-08-23T15:55:16.023Z,53.39
2022-08-23T15:57:47.699Z,53.17
2022-08-23T16:00:20.389Z,50.92
2022-08-23T16:03:18.726Z,50.49
2022-08-23T16:05:37.328Z,50.53
2022-08-23T16:08:06.664Z,50.90
2022-08-23T16:10:34.584Z,51.25
2022-08-23T16:13:03.553Z,51.88
2022-08-23T16:15:32.729Z,52.68
2022-08-23T16:18:00.403Z,53.17
2022-08-23T16:20:28.021Z,53.49
2022-08-23T16:22:55.687Z,53.72
2022-08-23T16:25:23.376Z,53.52
2022-08-23T16:27:51.199Z,53.39
2022-08-23T16:30:19.049Z,53.60
2022-08-23T16:32:48.022Z,53.16
2022-08-23T16:35:15.664Z,52.78
2022-08-23T16:37:43.388Z,52.29
2022-08-23T16:40:12.913Z,51.84
2022-08-23T16:42:40.643Z,51.46
2022-08-23T16:45:09.816Z,51.53
2022-08-23T16:47:42.449Z,51.54
2022-08-23T16:50:14.745Z,51.50
2022-08-23T16:52:43.170Z,51.45
2022-08-23T16:55:13.002Z,51.35
2022-08-23T16:57:40.847Z,50.39
2022-08-23T17:00:11.745Z,49.18
2022-08-23T17:02:40.781Z,48.45
2022-08-23T17:05:12.500Z,48.32
2022-08-23T17:07:41.471Z,47.88
2022-08-23T17:10:11.529Z,47.33
2022-08-23T17:12:43.137Z,47.04
2022-08-23T17:15:20.408Z,46.64
2022-08-23T17:17:48.611Z,45.82
2022-08-23T17:20:17.711Z,45.72
2022-08-23T17:22:47.339Z,45.14
2022-08-23T17:25:16.194Z,44.80
2022-08-23T17:27:46.437Z,44.14
2022-08-23T17:30:16.751Z,44.05
2022-08-23T17:32:46.330Z,43.54
2022-08-23T17:35:15.241Z,42.86
2022-08-23T17:37:43.598Z,42.73
2022-08-23T17:40:16.722Z,42.42
2022-08-23T17:42:48.844Z,41.91
2022-08-23T17:45:16.645Z,41.18
2022-08-23T17:47:44.407Z,40.34
2022-08-23T17:50:12.661Z,39.20
2022-08-23T17:52:41.168Z,38.48
2022-08-23T17:55:10.835Z,37.86
2022-08-23T17:57:40.741Z,37.55
2022-08-23T18:00:09.701Z,36.90
2022-08-23T18:02:37.992Z,36.22
2022-08-23T18:05:07.335Z,35.47
2022-08-23T18:07:34.967Z,34.81
2022-08-23T18:10:02.680Z,34.25
2022-08-23T18:12:30.319Z,33.78
2022-08-23T18:15:03.304Z,33.24
2022-08-23T18:17:31.245Z,32.80
2022-08-23T18:19:59.656Z,32.28
2022-08-23T18:22:28.116Z,31.94
2022-08-23T18:24:55.798Z,31.39
2022-08-23T18:27:41.988Z,30.89
2022-08-23T18:30:12.877Z,30.67
2022-08-23T18:32:40.553Z,30.28
2022-08-23T18:35:09.473Z,29.95
2022-08-23T18:37:37.145Z,29.56
2022-08-23T18:40:09.638Z,29.24
2022-08-23T18:42:38.079Z,28.90
2022-08-23T18:45:06.953Z,28.63
2022-08-23T18:47:36.100Z,28.60
2022-08-23T18:50:05.783Z,28.48
2022-08-23T18:52:33.410Z,28.33
2022-08-23T18:55:01.113Z,28.04
2022-08-23T18:57:28.792Z,27.87
2022-08-23T18:59:56.401Z,27.68
2022-08-23T19:02:25.035Z,27.46
2022-08-23T19:04:54.405Z,27.27
2022-08-23T19:07:22.340Z,27.12
2022-08-23T19:09:50.624Z,27.04
2022-08-23T19:12:18.448Z,26.82
2022-08-23T19:14:46.841Z,26.70
2022-08-23T19:17:14.461Z,26.50
2022-08-23T19:19:42.111Z,26.36
2022-08-23T19:22:11.053Z,26.26
2022-08-23T19:24:38.719Z,26.23
2022-08-23T19:27:06.509Z,26.13
2022-08-23T19:29:34.538Z,25.98
2022-08-23T19:32:02.738Z,25.75
2022-08-23T19:34:31.017Z,25.63
2022-08-23T19:37:01.448Z,25.52
2022-08-23T19:39:31.251Z,25.39
2022-08-23T19:41:58.990Z,25.21
2022-08-23T19:44:27.059Z,25.11
2022-08-23T19:46:55.901Z,24.99
2022-08-23T19:49:23.899Z,24.86
2022-08-23T19:51:51.746Z,24.77
2022-08-23T19:54:19.446Z,24.66
2022-08-23T19:56:50.292Z,24.57
2022-08-23T19:59:21.139Z,24.49
2022-08-23T20:01:49.639Z,24.41
2022-08-23T20:04:17.781Z,24.31
2022-08-23T20:06:45.474Z,24.24
2022-08-23T20:09:13.147Z,24.16
2022-08-23T20:11:40.817Z,24.05
2022-08-23T20:14:10.796Z,23.95
2022-08-23T20:16:41.092Z,23.87
2022-08-23T20:19:10.817Z,23.77
2022-08-23T20:21:38.568Z,23.71
2022-08-23T20:24:05.848Z,23.67
2022-08-23T20:26:35.056Z,23.61
2022-08-23T20:29:04.162Z,23.54
2022-08-23T20:31:36.345Z,23.51
2022-08-23T20:34:04.798Z,23.45
2022-08-23T20:36:33.529Z,23.37
2022-08-23T20:39:02.680Z,23.33
2022-08-23T20:41:32.599Z,23.28
2022-08-23T20:44:02.089Z,23.25
2022-08-23T20:46:29.889Z,23.18
2022-08-23T20:48:58.967Z,23.12
2022-08-23T20:51:28.116Z,23.05
2022-08-23T20:53:56.214Z,22.97
2022-08-23T20:56:25.612Z,22.89
2022-08-23T20:58:54.057Z,22.81
2022-08-23T21:01:22.628Z,22.75
2022-08-23T21:03:50.788Z,22.75
2022-08-23T21:06:21.826Z,22.67
2022-08-23T21:08:53.630Z,22.62
2022-08-23T21:11:22.569Z,22.61
2022-08-23T21:13:50.841Z,22.52
2022-08-23T21:16:19.156Z,22.46
2022-08-23T21:18:48.542Z,22.41
2022-08-23T21:21:21.434Z,22.35
2022-08-23T21:23:51.102Z,22.30
2022-08-23T21:26:19.400Z,22.23
2022-08-23T21:28:47.280Z,22.19
2022-08-23T21:31:18.190Z,22.19
2022-08-23T21:33:46.668Z,22.19
2022-08-23T21:36:15.473Z,22.18
2022-08-23T21:38:43.555Z,22.14
2022-08-23T21:41:29.723Z,22.13
2022-08-23T21:43:57.363Z,22.13
2022-08-23T21:46:25.058Z,22.14
2022-08-23T21:48:52.719Z,22.07
2022-08-23T21:51:20.607Z,22.01
2022-08-23T21:53:48.465Z,21.99
2022-08-23T21:56:17.642Z,21.94
2022-08-23T21:58:45.332Z,21.86
2022-08-23T22:01:13.671Z,21.84
2022-08-23T22:03:41.498Z,21.74
2022-08-23T22:06:14.444Z,21.68
2022-08-23T22:08:43.638Z,21.67
2022-08-23T22:11:11.486Z,21.55
2022-08-23T22:13:41.648Z,21.49
2022-08-23T22:16:09.969Z,21.49
2022-08-23T22:18:37.691Z,21.43
2022-08-23T22:21:06.472Z,21.36
2022-08-23T22:23:36.213Z,21.32
2022-08-23T22:26:07.307Z,21.26
2022-08-23T22:28:36.916Z,21.29
2022-08-23T22:31:07.645Z,21.33
2022-08-23T22:33:35.327Z,21.33
2022-08-23T22:36:03.830Z,21.29
2022-08-23T22:38:31.613Z,21.33
2022-08-23T22:40:59.343Z,21.38
2022-08-23T22:43:27.029Z,21.41
2022-08-23T22:45:57.444Z,21.42
2022-08-23T22:48:27.868Z,21.39
2022-08-23T22:51:06.291Z,21.39
2022-08-23T22:53:34.141Z,21.38
2022-08-23T22:56:02.056Z,21.33
2022-08-23T22:58:29.672Z,21.28
2022-08-23T23:00:57.325Z,21.25
2022-08-23T23:03:26.556Z,21.25
2022-08-23T23:05:54.430Z,21.20
2022-08-23T23:08:29.909Z,21.13
2022-08-23T23:10:59.640Z,21.14
2022-08-23T23:13:29.265Z,21.16
2022-08-23T23:15:58.081Z,21.13
2022-08-23T23:18:27.458Z,21.09
2022-08-23T23:20:58.136Z,21.04
2022-08-23T23:23:25.844Z,20.94
2022-08-23T23:25:54.009Z,20.85
2022-08-23T23:28:22.675Z,20.81
2022-08-23T23:30:53.687Z,20.65
2022-08-23T23:33:22.590Z,20.62
2022-08-23T23:35:51.938Z,20.51
2022-08-23T23:38:19.981Z,20.48
2022-08-23T23:40:47.560Z,20.43
2022-08-23T23:43:15.182Z,20.49
2022-08-23T23:45:42.949Z,20.50
2022-08-23T23:48:11.198Z,20.47
2022-08-23T23:50:44.962Z,20.41
2022-08-23T23:53:15.934Z,20.35
2022-08-23T23:55:44.484Z,20.36
2022-08-23T23:58:12.928Z,20.26
